sensor_id;sensor_type;location;lat;lon;timestamp;temperature;humidity
21489;DHT22;10906;45.194;5.684;2023-02-15T06:00:37;3.70;97.30
21489;DHT22;10906;45.194;5.684;2023-02-15T06:03:33;3.30;98.00
21489;DHT22;10906;45.194;5.684;2023-02-15T06:06:20;3.30;97.50
21489;DHT22;10906;45.194;5.684;2023-02-15T06:09:10;3.30;97.50
21489;DHT22;10906;45.194;5.684;2023-02-15T06:11:58;3.30;97.00
21489;DHT22;10906;45.194;5.684;2023-02-15T06:14:48;3.40;97.60
21489;DHT22;10906;45.194;5.684;2023-02-15T06:17:37;3.50;97.80
21489;DHT22;10906;45.194;5.684;2023-02-15T06:20:25;3.80;97.30
21489;DHT22;10906;45.194;5.684;2023-02-15T06:23:09;3.30;97.40
21489;DHT22;10906;45.194;5.684;2023-02-15T06:26:04;4.00;97.60
21489;DHT22;10906;45.194;5.684;2023-02-15T06:29:17;2.40;97.30
21489;DHT22;10906;45.194;5.684;2023-02-15T06:32:07;3.20;97.80
21489;DHT22;10906;45.194;5.684;2023-02-15T06:34:52;3.20;97.70
21489;DHT22;10906;45.194;5.684;2023-02-15T06:37:42;3.30;98.00
21489;DHT22;10906;45.194;5.684;2023-02-15T06:40:31;3.70;97.80
21489;DHT22;10906;45.194;5.684;2023-02-15T06:43:18;2.10;97.40
21489;DHT22;10906;45.194;5.684;2023-02-15T06:46:26;3.30;97.90
21489;DHT22;10906;45.194;5.684;2023-02-15T06:49:19;2.50;97.20
21489;DHT22;10906;45.194;5.684;2023-02-15T06:52:26;3.30;97.90
21489;DHT22;10906;45.194;5.684;2023-02-15T06:55:22;3.20;98.00
21489;DHT22;10906;45.194;5.684;2023-02-15T06:58:09;3.20;97.90
21489;DHT22;10906;45.194;5.684;2023-02-15T07:00:56;3.10;97.90
21489;DHT22;10906;45.194;5.684;2023-02-15T07:03:41;3.30;97.90
21489;DHT22;10906;45.194;5.684;2023-02-15T07:06:25;3.30;97.80
21489;DHT22;10906;45.194;5.684;2023-02-15T07:09:10;3.30;97.90
21489;DHT22;10906;45.194;5.684;2023-02-15T07:11:54;4.10;98.30
21489;DHT22;10906;45.194;5.684;2023-02-15T07:14:57;3.60;97.90
21489;DHT22;10906;45.194;5.684;2023-02-15T07:17:43;3.90;98.30
21489;DHT22;10906;45.194;5.684;2023-02-15T07:42:16;3.40;98.40
21489;DHT22;10906;45.194;5.684;2023-02-15T07:45:04;3.90;98.30
21489;DHT22;10906;45.194;5.684;2023-02-15T07:47:49;4.40;98.60
21489;DHT22;10906;45.194;5.684;2023-02-15T07:50:34;3.90;98.40
21489;DHT22;10906;45.194;5.684;2023-02-15T08:00:02;3.80;98.20
21489;DHT22;10906;45.194;5.684;2023-02-15T08:03:07;3.80;98.50
21489;DHT22;10906;45.194;5.684;2023-02-15T08:10:37;3.60;98.40
21489;DHT22;10906;45.194;5.684;2023-02-15T08:13:59;3.00;98.10
21489;DHT22;10906;45.194;5.684;2023-02-15T08:17:14;4.00;98.60
21489;DHT22;10906;45.194;5.684;2023-02-15T08:23:07;3.40;99.20
21489;DHT22;10906;45.194;5.684;2023-02-15T08:25:53;4.30;98.30
21489;DHT22;10906;45.194;5.684;2023-02-15T08:28:46;4.40;98.60
21489;DHT22;10906;45.194;5.684;2023-02-15T08:31:35;3.40;97.90
21489;DHT22;10906;45.194;5.684;2023-02-15T08:34:21;4.70;98.00
21489;DHT22;10906;45.194;5.684;2023-02-15T08:37:06;4.80;98.20
21489;DHT22;10906;45.194;5.684;2023-02-15T08:39:50;4.90;97.80
21489;DHT22;10906;45.194;5.684;2023-02-15T08:43:11;5.00;97.80
21489;DHT22;10906;45.194;5.684;2023-02-15T08:46:36;5.10;97.80
21489;DHT22;10906;45.194;5.684;2023-02-15T08:49:21;5.20;97.40
21489;DHT22;10906;45.194;5.684;2023-02-15T08:52:08;5.20;97.20
21489;DHT22;10906;45.194;5.684;2023-02-15T08:54:53;5.30;97.40
21489;DHT22;10906;45.194;5.684;2023-02-15T09:00:06;5.70;97.00
21489;DHT22;10906;45.194;5.684;2023-02-15T09:05:47;5.80;96.40
21489;DHT22;10906;45.194;5.684;2023-02-15T09:08:32;5.90;96.50
21489;DHT22;10906;45.194;5.684;2023-02-15T09:11:22;6.10;96.40
21489;DHT22;10906;45.194;5.684;2023-02-15T09:14:10;6.20;96.20
21489;DHT22;10906;45.194;5.684;2023-02-15T09:16:57;6.30;96.00
21489;DHT22;10906;45.194;5.684;2023-02-15T09:19:42;6.50;95.80
21489;DHT22;10906;45.194;5.684;2023-02-15T09:22:26;6.60;95.80
21489;DHT22;10906;45.194;5.684;2023-02-15T09:25:11;6.70;95.80
21489;DHT22;10906;45.194;5.684;2023-02-15T09:28:02;7.00;95.50
21489;DHT22;10906;45.194;5.684;2023-02-15T09:31:08;8.40;95.80
21489;DHT22;10906;45.194;5.684;2023-02-15T09:33:53;7.70;94.70
21489;DHT22;10906;45.194;5.684;2023-02-15T09:36:49;8.20;94.50
21489;DHT22;10906;45.194;5.684;2023-02-15T09:39:37;8.60;93.80
21489;DHT22;10906;45.194;5.684;2023-02-15T09:51:48;9.90;92.30
21489;DHT22;10906;45.194;5.684;2023-02-15T10:13:53;12.50;85.30
21489;DHT22;10906;45.194;5.684;2023-02-15T10:17:44;12.70;84.00
21489;DHT22;10906;45.194;5.684;2023-02-15T10:37:49;13.90;79.10
21489;DHT22;10906;45.194;5.684;2023-02-15T10:40:51;13.80;78.60
21489;DHT22;10906;45.194;5.684;2023-02-15T10:44:08;13.70;77.90
21489;DHT22;10906;45.194;5.684;2023-02-15T10:51:12;13.90;77.20
21489;DHT22;10906;45.194;5.684;2023-02-15T11:08:08;14.20;75.20
21489;DHT22;10906;45.194;5.684;2023-02-15T11:11:03;14.40;76.30
21489;DHT22;10906;45.194;5.684;2023-02-15T11:13:54;14.40;75.60
21489;DHT22;10906;45.194;5.684;2023-02-15T11:16:47;14.60;75.80
21489;DHT22;10906;45.194;5.684;2023-02-15T11:19:41;14.60;74.30
21489;DHT22;10906;45.194;5.684;2023-02-15T11:22:26;14.80;74.30
21489;DHT22;10906;45.194;5.684;2023-02-15T11:25:30;15.00;73.80
21489;DHT22;10906;45.194;5.684;2023-02-15T11:28:31;15.10;72.70
21489;DHT22;10906;45.194;5.684;2023-02-15T11:34:37;15.20;71.10
21489;DHT22;10906;45.194;5.684;2023-02-15T11:37:32;15.40;71.70
21489;DHT22;10906;45.194;5.684;2023-02-15T11:40:27;15.60;67.70
21489;DHT22;10906;45.194;5.684;2023-02-15T11:43:21;15.40;66.50
21489;DHT22;10906;45.194;5.684;2023-02-15T11:46:10;15.50;71.40
21489;DHT22;10906;45.194;5.684;2023-02-15T11:48:55;15.60;71.70
21489;DHT22;10906;45.194;5.684;2023-02-15T11:51:40;15.70;71.30
21489;DHT22;10906;45.194;5.684;2023-02-15T11:54:29;16.00;71.10
21489;DHT22;10906;45.194;5.684;2023-02-15T11:57:22;16.10;70.50
21489;DHT22;10906;45.194;5.684;2023-02-15T12:02:58;16.50;69.30
21489;DHT22;10906;45.194;5.684;2023-02-15T12:05:46;16.90;69.20
21489;DHT22;10906;45.194;5.684;2023-02-15T12:08:40;17.10;68.60
21489;DHT22;10906;45.194;5.684;2023-02-15T12:11:38;17.30;67.10
21489;DHT22;10906;45.194;5.684;2023-02-15T12:14:22;17.60;66.10
21489;DHT22;10906;45.194;5.684;2023-02-15T12:17:13;17.50;66.20
21489;DHT22;10906;45.194;5.684;2023-02-15T12:20:42;17.60;65.80
21489;DHT22;10906;45.194;5.684;2023-02-15T12:23:15;18.00;65.60
21489;DHT22;10906;45.194;5.684;2023-02-15T12:26:00;18.70;64.30
21489;DHT22;10906;45.194;5.684;2023-02-15T12:28:49;19.00;63.30
21489;DHT22;10906;45.194;5.684;2023-02-15T12:31:44;19.50;62.50
21489;DHT22;10906;45.194;5.684;2023-02-15T12:34:32;20.00;61.30
21489;DHT22;10906;45.194;5.684;2023-02-15T12:41:24;20.80;59.10
21489;DHT22;10906;45.194;5.684;2023-02-15T12:44:20;21.00;59.20
21489;DHT22;10906;45.194;5.684;2023-02-15T12:50:23;20.80;58.90
21489;DHT22;10906;45.194;5.684;2023-02-15T12:53:22;21.20;58.40
21489;DHT22;10906;45.194;5.684;2023-02-15T13:13:51;19.10;58.70
21489;DHT22;10906;45.194;5.684;2023-02-15T13:16:38;19.30;59.10
21489;DHT22;10906;45.194;5.684;2023-02-15T13:19:52;19.30;59.10
21489;DHT22;10906;45.194;5.684;2023-02-15T13:22:46;19.00;57.90
21489;DHT22;10906;45.194;5.684;2023-02-15T13:25:40;18.80;59.60
21489;DHT22;10906;45.194;5.684;2023-02-15T13:28:38;18.50;60.00
21489;DHT22;10906;45.194;5.684;2023-02-15T13:31:26;18.30;60.60
21489;DHT22;10906;45.194;5.684;2023-02-15T13:34:33;18.10;60.80
21489;DHT22;10906;45.194;5.684;2023-02-15T13:37:34;17.90;60.70
21489;DHT22;10906;45.194;5.684;2023-02-15T13:40:44;17.50;60.90
21489;DHT22;10906;45.194;5.684;2023-02-15T13:46:33;17.10;62.00
21489;DHT22;10906;45.194;5.684;2023-02-15T13:49:40;16.90;62.30
21489;DHT22;10906;45.194;5.684;2023-02-15T13:52:28;16.70;62.40
21489;DHT22;10906;45.194;5.684;2023-02-15T14:01:43;16.30;62.90
21489;DHT22;10906;45.194;5.684;2023-02-15T14:11:01;15.90;64.00
21489;DHT22;10906;45.194;5.684;2023-02-15T14:23:37;15.50;64.70
21489;DHT22;10906;45.194;5.684;2023-02-15T14:29:43;15.20;64.60
21489;DHT22;10906;45.194;5.684;2023-02-15T14:32:39;15.20;64.50
21489;DHT22;10906;45.194;5.684;2023-02-15T14:35:27;15.30;63.70
21489;DHT22;10906;45.194;5.684;2023-02-15T14:50:53;16.00;62.80
21489;DHT22;10906;45.194;5.684;2023-02-15T14:53:39;16.40;62.90
21489;DHT22;10906;45.194;5.684;2023-02-15T14:56:25;16.60;63.00
21489;DHT22;10906;45.194;5.684;2023-02-15T15:02:10;17.50;61.10
21489;DHT22;10906;45.194;5.684;2023-02-15T15:12:52;18.50;59.30
21489;DHT22;10906;45.194;5.684;2023-02-15T15:15:46;18.00;59.70
21489;DHT22;10906;45.194;5.684;2023-02-15T15:18:48;18.90;59.30
21489;DHT22;10906;45.194;5.684;2023-02-15T15:21:52;19.30;57.70
21489;DHT22;10906;45.194;5.684;2023-02-15T15:49:23;17.90;58.30
21489;DHT22;10906;45.194;5.684;2023-02-15T15:52:20;17.30;59.00
21489;DHT22;10906;45.194;5.684;2023-02-15T15:55:15;16.80;59.50
21489;DHT22;10906;45.194;5.684;2023-02-15T15:58:06;16.40;60.40
21489;DHT22;10906;45.194;5.684;2023-02-15T16:01:25;16.10;61.10
21489;DHT22;10906;45.194;5.684;2023-02-15T16:08:00;15.60;61.90
21489;DHT22;10906;45.194;5.684;2023-02-15T16:10:44;15.30;62.60
21489;DHT22;10906;45.194;5.684;2023-02-15T16:13:29;14.30;62.50
21489;DHT22;10906;45.194;5.684;2023-02-15T16:16:27;15.00;63.90
21489;DHT22;10906;45.194;5.684;2023-02-15T16:19:32;14.10;63.00
21489;DHT22;10906;45.194;5.684;2023-02-15T16:22:24;14.70;64.00
21489;DHT22;10906;45.194;5.684;2023-02-15T16:27:56;14.40;65.20
21489;DHT22;10906;45.194;5.684;2023-02-15T16:30:41;14.40;65.70
21489;DHT22;10906;45.194;5.684;2023-02-15T16:37:34;13.90;66.20
21489;DHT22;10906;45.194;5.684;2023-02-15T16:40:55;13.90;67.40
21489;DHT22;10906;45.194;5.684;2023-02-15T16:43:45;13.70;69.00
21489;DHT22;10906;45.194;5.684;2023-02-15T16:46:39;13.60;69.40
21489;DHT22;10906;45.194;5.684;2023-02-15T16:49:27;13.40;69.40
21489;DHT22;10906;45.194;5.684;2023-02-15T16:52:18;13.20;69.80
21489;DHT22;10906;45.194;5.684;2023-02-15T16:55:24;12.40;69.50
21489;DHT22;10906;45.194;5.684;2023-02-15T16:58:15;13.00;70.70
21489;DHT22;10906;45.194;5.684;2023-02-15T17:01:01;12.80;71.20
21489;DHT22;10906;45.194;5.684;2023-02-15T17:03:49;12.70;70.90
21489;DHT22;10906;45.194;5.684;2023-02-15T17:06:34;12.60;71.30
21489;DHT22;10906;45.194;5.684;2023-02-15T17:09:18;12.60;71.60
21489;DHT22;10906;45.194;5.684;2023-02-15T17:12:03;12.50;72.80
21489;DHT22;10906;45.194;5.684;2023-02-15T17:14:54;12.40;71.80
21489;DHT22;10906;45.194;5.684;2023-02-15T17:17:42;12.40;72.30
21489;DHT22;10906;45.194;5.684;2023-02-15T17:20:27;12.30;72.50
21489;DHT22;10906;45.194;5.684;2023-02-15T17:31:17;11.00;73.60
21489;DHT22;10906;45.194;5.684;2023-02-15T17:37:49;11.60;75.00
21489;DHT22;10906;45.194;5.684;2023-02-15T17:40:44;11.50;75.20
21489;DHT22;10906;45.194;5.684;2023-02-15T17:43:32;10.90;75.10
21489;DHT22;10906;45.194;5.684;2023-02-15T18:06:59;10.60;78.50
21489;DHT22;10906;45.194;5.684;2023-02-15T18:15:54;10.30;79.60
21489;DHT22;10906;45.194;5.684;2023-02-15T18:18:40;10.20;79.70
21489;DHT22;10906;45.194;5.684;2023-02-15T18:21:24;10.20;80.30
21489;DHT22;10906;45.194;5.684;2023-02-15T18:24:23;10.10;80.40
21489;DHT22;10906;45.194;5.684;2023-02-15T18:27:09;10.10;80.70
21489;DHT22;10906;45.194;5.684;2023-02-15T18:29:54;10.00;80.80
21489;DHT22;10906;45.194;5.684;2023-02-15T18:32:39;10.00;81.40
21489;DHT22;10906;45.194;5.684;2023-02-15T18:35:28;9.90;82.40
21489;DHT22;10906;45.194;5.684;2023-02-15T18:38:13;9.90;82.50
21489;DHT22;10906;45.194;5.684;2023-02-15T18:40:59;9.80;82.80
21489;DHT22;10906;45.194;5.684;2023-02-15T18:43:47;9.70;83.00
21489;DHT22;10906;45.194;5.684;2023-02-15T18:46:34;9.80;83.10
21489;DHT22;10906;45.194;5.684;2023-02-15T18:49:18;9.80;83.00
21489;DHT22;10906;45.194;5.684;2023-02-15T18:52:03;9.80;83.10
21489;DHT22;10906;45.194;5.684;2023-02-15T18:54:51;9.70;82.90
21489;DHT22;10906;45.194;5.684;2023-02-15T18:57:36;9.60;83.30
21489;DHT22;10906;45.194;5.684;2023-02-15T19:00:26;9.60;83.90
21489;DHT22;10906;45.194;5.684;2023-02-15T19:03:16;9.60;83.80
21489;DHT22;10906;45.194;5.684;2023-02-15T19:06:01;9.50;84.20
21489;DHT22;10906;45.194;5.684;2023-02-15T19:08:51;9.50;84.50
21489;DHT22;10906;45.194;5.684;2023-02-15T19:11:36;9.50;84.90
21489;DHT22;10906;45.194;5.684;2023-02-15T19:14:29;9.50;84.80
21489;DHT22;10906;45.194;5.684;2023-02-15T19:17:16;9.60;84.70
21489;DHT22;10906;45.194;5.684;2023-02-15T19:20:01;9.50;84.60
21489;DHT22;10906;45.194;5.684;2023-02-15T19:22:47;9.50;84.70
21489;DHT22;10906;45.194;5.684;2023-02-15T19:25:34;9.50;84.90
21489;DHT22;10906;45.194;5.684;2023-02-15T19:28:29;9.50;85.10
21489;DHT22;10906;45.194;5.684;2023-02-15T19:31:15;9.40;85.20
21489;DHT22;10906;45.194;5.684;2023-02-15T19:34:07;9.30;85.30
21489;DHT22;10906;45.194;5.684;2023-02-15T19:36:53;9.30;85.50
21489;DHT22;10906;45.194;5.684;2023-02-15T19:39:40;9.20;85.60
21489;DHT22;10906;45.194;5.684;2023-02-15T19:42:26;9.10;85.80
21489;DHT22;10906;45.194;5.684;2023-02-15T19:45:16;9.10;86.00
21489;DHT22;10906;45.194;5.684;2023-02-15T19:48:01;9.10;86.20
21489;DHT22;10906;45.194;5.684;2023-02-15T19:50:45;9.10;86.40
21489;DHT22;10906;45.194;5.684;2023-02-15T19:53:31;8.80;86.20
21489;DHT22;10906;45.194;5.684;2023-02-15T19:56:26;9.00;86.60
21489;DHT22;10906;45.194;5.684;2023-02-15T19:59:28;9.00;86.40
21489;DHT22;10906;45.194;5.684;2023-02-15T20:02:14;8.90;86.50
21489;DHT22;10906;45.194;5.684;2023-02-15T20:04:59;8.90;86.50
21489;DHT22;10906;45.194;5.684;2023-02-15T20:07:48;8.80;86.70
21489;DHT22;10906;45.194;5.684;2023-02-15T20:10:34;8.80;86.40
21489;DHT22;10906;45.194;5.684;2023-02-15T20:13:19;8.80;86.40
21489;DHT22;10906;45.194;5.684;2023-02-15T20:16:06;8.80;86.50
21489;DHT22;10906;45.194;5.684;2023-02-15T20:18:52;8.70;86.50
21489;DHT22;10906;45.194;5.684;2023-02-15T20:21:37;8.80;86.60
21489;DHT22;10906;45.194;5.684;2023-02-15T20:24:24;8.70;86.50
21489;DHT22;10906;45.194;5.684;2023-02-15T20:27:17;8.80;86.60
21489;DHT22;10906;45.194;5.684;2023-02-15T20:30:02;8.80;86.70
21489;DHT22;10906;45.194;5.684;2023-02-15T20:32:47;8.70;86.70
21489;DHT22;10906;45.194;5.684;2023-02-15T20:35:32;8.80;87.10
21489;DHT22;10906;45.194;5.684;2023-02-15T20:38:24;8.70;86.60
21489;DHT22;10906;45.194;5.684;2023-02-15T20:41:14;8.70;86.80
21489;DHT22;10906;45.194;5.684;2023-02-15T20:47:03;8.70;87.40
21489;DHT22;10906;45.194;5.684;2023-02-15T20:49:47;8.60;87.10
21489;DHT22;10906;45.194;5.684;2023-02-15T20:52:34;8.50;87.40
21489;DHT22;10906;45.194;5.684;2023-02-15T20:55:24;8.70;87.60
21489;DHT22;10906;45.194;5.684;2023-02-15T20:58:27;8.60;87.40
21489;DHT22;10906;45.194;5.684;2023-02-15T21:01:12;8.50;87.00
21489;DHT22;10906;45.194;5.684;2023-02-15T21:03:57;8.50;86.90
21489;DHT22;10906;45.194;5.684;2023-02-15T21:06:41;8.50;87.10
21489;DHT22;10906;45.194;5.684;2023-02-15T21:09:26;8.50;87.30
21489;DHT22;10906;45.194;5.684;2023-02-15T21:12:15;8.40;87.20
21489;DHT22;10906;45.194;5.684;2023-02-15T21:15:01;8.50;87.40
21489;DHT22;10906;45.194;5.684;2023-02-15T21:17:45;8.50;87.40
21489;DHT22;10906;45.194;5.684;2023-02-15T21:20:31;8.50;87.40
21489;DHT22;10906;45.194;5.684;2023-02-15T21:23:19;8.50;87.40
21489;DHT22;10906;45.194;5.684;2023-02-15T21:26:05;8.40;87.50
21489;DHT22;10906;45.194;5.684;2023-02-15T21:28:50;8.40;87.20
21489;DHT22;10906;45.194;5.684;2023-02-15T21:31:38;8.40;87.30
21489;DHT22;10906;45.194;5.684;2023-02-15T21:34:22;8.40;87.40
21489;DHT22;10906;45.194;5.684;2023-02-15T21:37:26;8.30;88.60
21489;DHT22;10906;45.194;5.684;2023-02-15T21:43:01;8.40;87.40
21489;DHT22;10906;45.194;5.684;2023-02-15T21:46:16;8.30;87.60
21489;DHT22;10906;45.194;5.684;2023-02-15T21:49:19;9.70;88.80
21489;DHT22;10906;45.194;5.684;2023-02-15T21:52:03;8.30;88.70
21489;DHT22;10906;45.194;5.684;2023-02-15T21:54:57;8.30;87.80
21489;DHT22;10906;45.194;5.684;2023-02-15T21:57:42;8.30;87.70
21489;DHT22;10906;45.194;5.684;2023-02-15T22:00:27;8.40;87.50
21489;DHT22;10906;45.194;5.684;2023-02-15T22:03:12;8.40;87.50
21489;DHT22;10906;45.194;5.684;2023-02-15T22:05:56;8.40;87.50
21489;DHT22;10906;45.194;5.684;2023-02-15T22:08:42;8.40;87.40
21489;DHT22;10906;45.194;5.684;2023-02-15T22:11:28;8.40;87.40
21489;DHT22;10906;45.194;5.684;2023-02-15T22:14:35;8.40;87.40
21489;DHT22;10906;45.194;5.684;2023-02-15T22:17:23;8.40;87.90
21489;DHT22;10906;45.194;5.684;2023-02-15T22:20:18;8.30;87.60
21489;DHT22;10906;45.194;5.684;2023-02-15T22:23:03;8.20;87.50
21489;DHT22;10906;45.194;5.684;2023-02-15T22:25:55;8.20;87.60
21489;DHT22;10906;45.194;5.684;2023-02-15T22:28:40;8.20;87.70
21489;DHT22;10906;45.194;5.684;2023-02-15T22:31:25;8.10;87.50
21489;DHT22;10906;45.194;5.684;2023-02-15T22:34:31;8.10;87.70
21489;DHT22;10906;45.194;5.684;2023-02-15T22:37:15;8.10;88.00
21489;DHT22;10906;45.194;5.684;2023-02-15T22:40:08;8.10;88.60
21489;DHT22;10906;45.194;5.684;2023-02-15T22:42:54;8.10;87.90
21489;DHT22;10906;45.194;5.684;2023-02-15T22:45:42;8.10;87.90
21489;DHT22;10906;45.194;5.684;2023-02-15T22:48:26;8.10;89.10
21489;DHT22;10906;45.194;5.684;2023-02-15T22:51:19;8.10;88.00
21489;DHT22;10906;45.194;5.684;2023-02-15T22:54:06;8.00;88.60
21489;DHT22;10906;45.194;5.684;2023-02-15T22:56:52;8.00;88.30
21489;DHT22;10906;45.194;5.684;2023-02-15T22:59:36;8.00;88.40
